Time;durP1;ratioP1;P1;durP2;ratioP2;P2;SDS_P1;SDS_P2;PMS_P1;PMS_P2;Temp;Humidity;BMP_temperature;BMP_pressure;BME280_temperature;BME280_humidity;BME280_pressure;Samples;Min_cycle;Max_cycle;Signal;HPM_P1;HPM_P2
2021/09/14 00:02:01;;;;;;;5.23;3.87;;;14.40;84.70;;;;;;5033670;28;20757;-75
2021/09/14 00:04:26;;;;;;;8.60;4.03;;;14.40;84.80;;;;;;5050176;28;20450;-76
2021/09/14 00:06:52;;;;;;;6.82;4.30;;;14.40;84.80;;;;;;5050239;28;20385;-76
2021/09/14 00:09:18;;;;;;;6.38;4.22;;;14.30;84.90;;;;;;5033226;28;20456;-75
2021/09/14 00:11:43;;;;;;;6.97;4.20;;;14.30;84.90;;;;;;5050390;28;20464;-76
2021/09/14 00:14:09;;;;;;;6.55;3.83;;;14.30;85.00;;;;;;5033244;28;20891;-77
2021/09/14 00:16:35;;;;;;;5.85;3.92;;;14.30;85.10;;;;;;5033407;28;20398;-76
2021/09/14 00:19:00;;;;;;;8.13;4.43;;;14.30;84.80;;;;;;5033410;28;20400;-76
2021/09/14 00:21:26;;;;;;;7.63;4.40;;;14.30;84.70;;;;;;5033343;28;20478;-75
2021/09/14 00:23:52;;;;;;;6.93;4.43;;;14.30;84.90;;;;;;5033269;28;20480;-75
2021/09/14 00:26:17;;;;;;;6.47;4.88;;;14.30;85.30;;;;;;5033224;28;20393;-76
2021/09/14 00:28:43;;;;;;;9.17;4.80;;;14.20;85.30;;;;;;5033027;28;20393;-75
2021/09/14 00:31:09;;;;;;;6.80;4.27;;;14.20;85.60;;;;;;5033258;28;20381;-75
2021/09/14 00:33:34;;;;;;;8.40;4.70;;;14.20;85.50;;;;;;5050901;28;20873;-76
2021/09/14 00:36:00;;;;;;;9.07;5.10;;;14.20;85.20;;;;;;5033272;28;20401;-76
2021/09/14 00:38:25;;;;;;;9.07;4.97;;;14.20;85.40;;;;;;5033254;28;20393;-76
2021/09/14 00:40:51;;;;;;;7.63;4.88;;;14.10;85.60;;;;;;5049794;28;20789;-76
2021/09/14 00:43:21;;;;;;;6.90;4.65;;;14.10;85.80;;;;;;5033115;28;20389;-75
2021/09/14 00:45:48;;;;;;;9.32;5.25;;;14.10;85.70;;;;;;5033078;28;20468;-75
2021/09/14 00:48:14;;;;;;;7.15;5.00;;;14.10;85.60;;;;;;5050799;28;20447;-76
2021/09/14 00:50:42;;;;;;;6.45;4.78;;;14.10;85.90;;;;;;5052599;28;20881;-76
2021/09/14 00:53:08;;;;;;;9.75;5.40;;;14.00;85.90;;;;;;5037172;28;20781;-76
2021/09/14 00:55:33;;;;;;;7.55;4.68;;;14.00;85.60;;;;;;5036746;28;20417;-75
2021/09/14 00:57:59;;;;;;;5.57;4.40;;;14.00;85.70;;;;;;5036962;28;20389;-75
2021/09/14 01:00:25;;;;;;;9.10;5.45;;;14.00;85.50;;;;;;5037069;28;20396;-75
2021/09/14 01:02:52;;;;;;;10.23;5.87;;;13.90;85.70;;;;;;5036961;28;20397;-76
2021/09/14 01:05:17;;;;;;;7.03;5.22;;;13.90;85.60;;;;;;5036938;28;20393;-76
2021/09/14 01:07:44;;;;;;;7.17;5.03;;;13.90;85.50;;;;;;5036837;28;20440;-75
2021/09/14 01:10:13;;;;;;;8.07;4.93;;;13.90;85.90;;;;;;5036882;28;20416;-76
2021/09/14 01:12:40;;;;;;;7.47;4.93;;;13.90;85.90;;;;;;5036807;28;20385;-76
2021/09/14 01:15:06;;;;;;;7.32;4.78;;;13.90;85.90;;;;;;5036681;28;20409;-75
2021/09/14 01:17:33;;;;;;;9.45;4.72;;;13.80;86.10;;;;;;5036948;28;20436;-76
2021/09/14 01:19:58;;;;;;;7.32;5.03;;;13.80;86.00;;;;;;5036652;28;20468;-76
2021/09/14 01:22:31;;;;;;;7.75;5.35;;;13.80;86.00;;;;;;5036574;28;20945;-76
2021/09/14 01:24:58;;;;;;;8.25;5.18;;;13.80;85.90;;;;;;5036523;28;20398;-76
2021/09/14 01:27:24;;;;;;;7.28;5.35;;;13.80;85.90;;;;;;5036557;28;20889;-76
2021/09/14 01:32:34;;;;;;;8.95;5.05;;;13.80;85.80;;;;;;5054117;28;20426;-76
2021/09/14 01:35:08;;;;;;;8.03;5.43;;;13.70;86.00;;;;;;5036238;28;20413;-76
2021/09/14 01:37:34;;;;;;;11.13;4.90;;;13.70;86.00;;;;;;5035976;28;20397;-76
2021/09/14 01:39:59;;;;;;;6.87;5.03;;;13.60;85.90;;;;;;5035814;28;20404;-77
2021/09/14 01:42:25;;;;;;;8.40;5.03;;;13.70;85.90;;;;;;5032937;28;20911;-76
2021/09/14 01:44:50;;;;;;;10.25;5.50;;;13.60;86.00;;;;;;5032924;28;20498;-76
2021/09/14 01:47:16;;;;;;;7.73;5.30;;;13.60;85.90;;;;;;5033849;28;20470;-76
2021/09/14 01:49:42;;;;;;;9.60;5.32;;;13.60;85.90;;;;;;5032799;28;20470;-76
2021/09/14 01:52:08;;;;;;;7.68;5.13;;;13.60;85.80;;;;;;5032595;28;20387;-77
2021/09/14 01:54:33;;;;;;;7.75;5.80;;;13.50;85.90;;;;;;5032596;28;20413;-77
2021/09/14 01:57:00;;;;;;;8.33;5.07;;;13.50;86.00;;;;;;5032834;28;20410;-76
2021/09/14 01:59:25;;;;;;;7.43;5.05;;;13.40;85.90;;;;;;5032586;28;20438;-75
2021/09/14 02:02:00;;;;;;;7.70;4.57;;;13.40;86.00;;;;;;5032882;28;20851;-75
2021/09/14 02:07:31;;;;;;;7.25;4.78;;;13.40;85.90;;;;;;5033890;28;20386;-76
2021/09/14 02:24:02;;;;;;;8.13;5.28;;;13.30;86.10;;;;;;5033494;28;20402;-76
2021/09/14 02:59:00;;;;;;;6.07;4.95;;;13.10;86.60;;;;;;5031069;28;20872;-76
2021/09/14 03:01:26;;;;;;;8.77;5.60;;;13.00;86.50;;;;;;5031433;28;20391;-76
2021/09/14 03:03:54;;;;;;;8.20;5.30;;;12.90;86.60;;;;;;5031522;28;20398;-76
2021/09/14 03:06:20;;;;;;;7.93;5.63;;;12.90;86.90;;;;;;5031398;28;20403;-77
2021/09/14 03:08:47;;;;;;;8.70;5.30;;;12.90;86.50;;;;;;5031362;28;20410;-75
2021/09/14 03:11:15;;;;;;;8.35;5.45;;;13.00;86.60;;;;;;5031187;28;20405;-76
2021/09/14 03:13:41;;;;;;;9.38;5.72;;;12.90;86.50;;;;;;5031062;28;20444;-76
2021/09/14 03:16:12;;;;;;;8.07;5.43;;;12.90;86.70;;;;;;5034509;28;20941;-76
2021/09/14 03:18:38;;;;;;;7.68;5.60;;;12.90;86.70;;;;;;5034132;28;20481;-76
2021/09/14 03:21:05;;;;;;;7.30;5.22;;;12.90;86.70;;;;;;5034387;28;20438;-76
2021/09/14 03:23:32;;;;;;;8.67;5.63;;;12.90;86.70;;;;;;5052513;28;20475;-76
2021/09/14 03:25:58;;;;;;;6.20;5.20;;;12.90;86.60;;;;;;5034272;28;20389;-76
2021/09/14 03:28:24;;;;;;;11.13;6.22;;;12.80;86.90;;;;;;5034296;28;20393;-76
2021/09/14 03:30:50;;;;;;;9.55;5.15;;;12.80;87.00;;;;;;5034134;28;20419;-76
2021/09/14 03:33:16;;;;;;;8.23;5.32;;;12.80;86.80;;;;;;5034220;28;20377;-76
2021/09/14 03:35:43;;;;;;;10.35;5.97;;;12.80;86.90;;;;;;5034031;28;20829;-76
2021/09/14 03:38:08;;;;;;;8.32;5.85;;;12.80;86.70;;;;;;5033722;28;20424;-76
2021/09/14 03:40:34;;;;;;;7.73;5.60;;;12.80;87.00;;;;;;5033975;28;20433;-77
2021/09/14 03:43:00;;;;;;;10.23;5.90;;;12.80;86.90;;;;;;5034025;28;20962;-76
2021/09/14 03:45:27;;;;;;;9.43;5.82;;;12.80;86.80;;;;;;5033939;28;20472;-75
2021/09/14 03:47:53;;;;;;;10.05;5.82;;;12.80;86.90;;;;;;5033811;28;20394;-76
2021/09/14 03:50:18;;;;;;;10.02;5.47;;;12.80;86.90;;;;;;5033922;28;20456;-76
2021/09/14 03:52:44;;;;;;;11.68;6.18;;;12.80;86.70;;;;;;5033859;28;20665;-76
2021/09/14 03:55:10;;;;;;;11.10;6.50;;;12.80;86.80;;;;;;5033548;28;20966;-76
2021/09/14 03:57:36;;;;;;;10.05;6.20;;;12.80;86.80;;;;;;5033728;28;20435;-76
2021/09/14 04:00:03;;;;;;;10.27;6.28;;;12.70;87.10;;;;;;5033667;28;20381;-76
2021/09/14 04:02:35;;;;;;;8.70;6.32;;;12.70;86.70;;;;;;5033631;28;20477;-76
2021/09/14 04:07:51;;;;;;;12.33;6.27;;;12.70;86.80;;;;;;5051306;28;20480;-76
2021/09/14 04:10:17;;;;;;;12.85;6.30;;;12.70;87.00;;;;;;5033653;28;20386;-75
2021/09/14 04:12:43;;;;;;;11.07;6.53;;;12.70;86.80;;;;;;5033577;28;20393;-75
2021/09/14 04:15:08;;;;;;;11.57;6.77;;;12.70;86.90;;;;;;5033556;28;20762;-76
2021/09/14 04:17:34;;;;;;;10.32;6.25;;;12.70;87.10;;;;;;5033678;28;20818;-76
2021/09/14 04:20:00;;;;;;;11.43;6.45;;;12.70;87.20;;;;;;5033489;28;20394;-76
2021/09/14 04:22:25;;;;;;;10.95;6.65;;;12.60;87.40;;;;;;5050989;28;20931;-76
2021/09/14 04:24:51;;;;;;;11.83;7.20;;;12.70;87.00;;;;;;5032509;28;20396;-76
2021/09/14 04:27:17;;;;;;;9.77;6.33;;;12.70;87.00;;;;;;5033388;28;20464;-75
2021/09/14 04:29:44;;;;;;;12.07;7.23;;;12.70;87.00;;;;;;5033394;28;20938;-76
2021/09/14 04:32:10;;;;;;;11.55;7.00;;;12.60;87.10;;;;;;5033187;28;20389;-76
2021/09/14 04:34:36;;;;;;;11.13;6.90;;;12.70;87.10;;;;;;5032983;28;20413;-76
2021/09/14 04:37:01;;;;;;;12.00;7.33;;;12.70;87.20;;;;;;5032978;28;20447;-75
2021/09/14 04:39:27;;;;;;;10.52;6.80;;;12.70;87.10;;;;;;5033238;28;20762;-76
2021/09/14 04:41:53;;;;;;;10.75;7.15;;;12.70;87.10;;;;;;5033240;28;20842;-75
2021/09/14 04:44:18;;;;;;;10.88;6.95;;;12.70;87.10;;;;;;5032679;28;20451;-75
2021/09/14 04:46:45;;;;;;;9.27;6.80;;;12.70;87.10;;;;;;5033160;28;20390;-76
2021/09/14 04:49:11;;;;;;;12.57;7.60;;;12.70;87.30;;;;;;5032919;28;20393;-76
2021/09/14 04:51:37;;;;;;;10.77;7.00;;;12.70;87.30;;;;;;5033197;28;20967;-76
2021/09/14 04:54:02;;;;;;;10.88;7.13;;;12.70;87.00;;;;;;5033047;28;20413;-76
2021/09/14 04:56:28;;;;;;;13.60;7.10;;;12.70;87.30;;;;;;5033492;28;20398;-75
2021/09/14 04:58:54;;;;;;;11.40;7.27;;;12.60;87.30;;;;;;5033027;28;20914;-76
2021/09/14 05:01:20;;;;;;;10.33;7.17;;;12.70;87.30;;;;;;5033034;28;20453;-75
2021/09/14 05:03:47;;;;;;;12.35;7.75;;;12.70;87.50;;;;;;5032922;28;20787;-75
2021/09/14 05:06:13;;;;;;;13.80;8.23;;;12.60;87.60;;;;;;5033009;28;20443;-75
2021/09/14 05:08:39;;;;;;;11.50;7.60;;;12.70;87.50;;;;;;5032946;28;20777;-76
2021/09/14 05:11:05;;;;;;;10.27;6.93;;;12.70;87.30;;;;;;5032988;28;20724;-74
2021/09/14 05:13:31;;;;;;;13.85;7.47;;;12.70;87.50;;;;;;5032912;28;20459;-75
2021/09/14 05:15:57;;;;;;;12.85;8.00;;;12.80;87.10;;;;;;5032859;28;20489;-75
2021/09/14 05:18:27;;;;;;;12.02;8.00;;;12.70;87.40;;;;;;5032532;28;20898;-75
2021/09/14 05:20:53;;;;;;;12.48;8.20;;;12.70;87.30;;;;;;5032704;28;20424;-77
2021/09/14 05:23:32;;;;;;;11.30;7.53;;;12.70;87.40;;;;;;5032703;28;20401;-77
2021/09/14 05:25:59;;;;;;;12.13;7.47;;;12.70;87.60;;;;;;5032837;28;20723;-76
2021/09/14 05:28:25;;;;;;;12.63;7.57;;;12.60;87.70;;;;;;5032713;28;20389;-76
2021/09/14 05:30:51;;;;;;;13.00;7.15;;;12.60;87.70;;;;;;5032791;28;20452;-76
2021/09/14 05:33:17;;;;;;;10.07;7.20;;;12.70;87.50;;;;;;5033001;28;20447;-75
2021/09/14 05:35:51;;;;;;;12.82;7.45;;;12.70;87.60;;;;;;5050364;28;20921;-75
2021/09/14 05:38:19;;;;;;;9.60;6.88;;;12.70;87.60;;;;;;5036344;28;20401;-75
2021/09/14 05:40:45;;;;;;;9.25;6.82;;;12.80;87.30;;;;;;5036287;28;20742;-75
2021/09/14 05:43:11;;;;;;;10.82;7.13;;;12.70;87.70;;;;;;5036219;28;20386;-75
2021/09/14 05:45:36;;;;;;;11.90;7.65;;;12.80;88.00;;;;;;5036166;28;20400;-76
2021/09/14 05:48:02;;;;;;;11.55;7.85;;;12.70;87.90;;;;;;5036188;28;20889;-75
2021/09/14 05:50:28;;;;;;;10.73;7.03;;;12.70;87.90;;;;;;5036005;28;20929;-75
2021/09/14 05:52:54;;;;;;;12.45;8.35;;;12.80;87.80;;;;;;5036059;28;20866;-75
2021/09/14 05:55:19;;;;;;;12.93;7.57;;;12.80;87.80;;;;;;5035821;28;20436;-75
2021/09/14 05:57:45;;;;;;;11.20;7.80;;;12.80;88.00;;;;;;5036346;28;20415;-75
2021/09/14 06:00:12;;;;;;;11.38;7.65;;;12.80;88.00;;;;;;5035647;28;20402;-75
2021/09/14 06:02:38;;;;;;;10.98;7.97;;;12.90;88.00;;;;;;5035607;28;20419;-76
2021/09/14 06:05:04;;;;;;;16.73;8.30;;;12.90;87.90;;;;;;5034720;28;20423;-75
2021/09/14 06:07:30;;;;;;;11.98;7.70;;;12.90;88.00;;;;;;5034100;28;20392;-75
2021/09/14 06:09:56;;;;;;;12.05;7.70;;;12.90;88.00;;;;;;5035782;28;20391;-75
2021/09/14 06:12:22;;;;;;;12.93;8.30;;;12.90;88.00;;;;;;5035807;28;20439;-75
2021/09/14 06:14:48;;;;;;;14.85;8.32;;;12.90;88.00;;;;;;5035569;28;20441;-76
2021/09/14 06:17:13;;;;;;;13.82;8.30;;;12.90;88.00;;;;;;5035785;28;20432;-75
2021/09/14 06:19:39;;;;;;;11.17;7.70;;;12.90;88.00;;;;;;5035594;28;20867;-76
2021/09/14 06:22:05;;;;;;;12.67;8.17;;;13.00;87.80;;;;;;5035582;28;20866;-76
2021/09/14 06:24:31;;;;;;;14.07;8.50;;;13.10;87.80;;;;;;5035489;28;20405;-76
2021/09/14 06:26:57;;;;;;;12.30;8.25;;;13.10;88.00;;;;;;5035511;28;20381;-76
2021/09/14 06:29:22;;;;;;;11.77;7.82;;;13.10;87.70;;;;;;5035383;28;20390;-75
2021/09/14 06:31:48;;;;;;;11.30;7.63;;;13.10;87.90;;;;;;5035357;28;20393;-75
2021/09/14 06:34:14;;;;;;;11.43;7.90;;;13.10;88.00;;;;;;5035106;28;20414;-75
2021/09/14 06:36:40;;;;;;;22.33;14.25;;;13.10;88.10;;;;;;5035330;28;20393;-75
2021/09/14 06:39:05;;;;;;;16.27;10.13;;;13.30;88.30;;;;;;5035265;28;20472;-75
2021/09/14 06:41:31;;;;;;;15.47;9.50;;;13.30;88.40;;;;;;5035084;28;20394;-76
2021/09/14 06:43:58;;;;;;;20.30;10.00;;;13.30;88.70;;;;;;5052774;28;20503;-75
2021/09/14 06:46:24;;;;;;;16.38;9.43;;;13.40;88.90;;;;;;5035117;28;20520;-75
2021/09/14 06:48:50;;;;;;;17.70;9.80;;;13.40;89.10;;;;;;5034067;28;20390;-75
2021/09/14 06:51:16;;;;;;;17.02;10.02;;;13.40;89.50;;;;;;5034887;28;20889;-75
2021/09/14 06:53:42;;;;;;;15.23;9.80;;;13.50;90.00;;;;;;5034711;28;20386;-75
2021/09/14 06:56:08;;;;;;;14.17;10.13;;;13.60;89.70;;;;;;5034574;28;20491;-76
2021/09/14 06:58:34;;;;;;;16.25;9.82;;;13.60;90.20;;;;;;5034859;28;20389;-75
2021/09/14 07:01:00;;;;;;;17.55;11.52;;;13.70;89.70;;;;;;5034771;28;20401;-75
2021/09/14 07:03:26;;;;;;;16.90;10.38;;;13.80;89.80;;;;;;5034732;28;20377;-76
2021/09/14 07:05:52;;;;;;;14.18;10.05;;;13.80;90.10;;;;;;5034587;28;20433;-75
2021/09/14 07:08:17;;;;;;;17.77;10.03;;;13.90;90.20;;;;;;5034701;28;20413;-75
2021/09/14 07:10:44;;;;;;;16.77;9.83;;;14.00;90.00;;;;;;5034629;28;20390;-76
2021/09/14 07:13:10;;;;;;;14.77;9.75;;;14.10;90.20;;;;;;5034524;28;20400;-75
2021/09/14 07:15:36;;;;;;;16.02;9.32;;;14.20;90.10;;;;;;5034350;28;20405;-76
2021/09/14 07:18:02;;;;;;;15.85;9.32;;;14.30;89.80;;;;;;5034389;28;20397;-76
2021/09/14 07:20:28;;;;;;;15.00;8.57;;;14.40;89.70;;;;;;5034458;28;20408;-76
2021/09/14 07:22:53;;;;;;;18.63;9.80;;;14.50;89.80;;;;;;5034642;28;20867;-76
2021/09/14 07:25:19;;;;;;;17.40;8.70;;;14.50;89.70;;;;;;5034527;28;20394;-76
2021/09/14 07:27:45;;;;;;;14.10;9.18;;;14.60;89.70;;;;;;5034187;28;20393;-76
2021/09/14 07:30:11;;;;;;;15.90;9.05;;;14.70;89.50;;;;;;5034249;28;20401;-76
2021/09/14 07:32:37;;;;;;;16.58;8.93;;;14.80;89.40;;;;;;5034127;28;20524;-76
2021/09/14 07:35:04;;;;;;;20.23;9.43;;;14.90;89.60;;;;;;5034016;28;20409;-76
2021/09/14 07:37:31;;;;;;;17.42;9.75;;;15.00;89.40;;;;;;5034012;28;20942;-76
2021/09/14 07:39:57;;;;;;;18.67;9.38;;;14.90;89.10;;;;;;5034030;28;20385;-77
2021/09/14 07:42:22;;;;;;;16.77;9.90;;;15.00;89.50;;;;;;5034010;28;20389;-77
2021/09/14 07:44:50;;;;;;;16.73;8.97;;;15.10;89.20;;;;;;5033908;28;20404;-75
2021/09/14 07:47:16;;;;;;;17.23;10.27;;;15.20;89.10;;;;;;5033966;28;20385;-76
2021/09/14 07:49:42;;;;;;;16.80;9.90;;;15.20;89.20;;;;;;5033928;28;20418;-75
2021/09/14 07:52:08;;;;;;;14.40;9.68;;;15.30;88.70;;;;;;5033837;28;20428;-75
2021/09/14 07:54:33;;;;;;;16.38;9.55;;;15.40;89.10;;;;;;5033710;28;20402;-76
2021/09/14 07:57:00;;;;;;;19.73;9.27;;;15.40;88.80;;;;;;5033605;28;20418;-75
2021/09/14 07:59:25;;;;;;;20.00;9.80;;;15.40;88.70;;;;;;5051288;28;20919;-76
2021/09/14 08:01:51;;;;;;;20.43;10.90;;;15.60;89.00;;;;;;5033678;28;20390;-76
2021/09/14 08:04:17;;;;;;;17.10;9.23;;;15.60;88.60;;;;;;5033710;28;20462;-75
2021/09/14 08:06:42;;;;;;;14.63;9.38;;;15.80;88.70;;;;;;5033566;28;20385;-75
2021/09/14 08:09:08;;;;;;;16.13;8.90;;;15.80;88.50;;;;;;5033539;28;20778;-75
2021/09/14 08:11:35;;;;;;;13.97;8.43;;;15.90;88.10;;;;;;5033592;28;20436;-76
2021/09/14 08:14:00;;;;;;;15.50;8.52;;;16.00;87.50;;;;;;5033419;28;20417;-76
2021/09/14 08:16:26;;;;;;;16.63;8.15;;;16.00;88.00;;;;;;5033398;28;20485;-75
2021/09/14 08:18:52;;;;;;;16.00;8.10;;;16.10;88.10;;;;;;5033440;28;20390;-76
2021/09/14 08:21:17;;;;;;;13.82;8.43;;;16.20;87.40;;;;;;5033386;28;20401;-76
2021/09/14 08:23:43;;;;;;;19.42;8.43;;;16.20;87.30;;;;;;5050915;28;20866;-75
2021/09/14 08:26:09;;;;;;;11.73;7.75;;;16.30;87.70;;;;;;5033362;28;20405;-75
2021/09/14 08:28:35;;;;;;;14.00;9.07;;;16.40;87.10;;;;;;5033461;28;20793;-75
2021/09/14 08:31:00;;;;;;;12.60;7.75;;;16.50;87.10;;;;;;5033242;28;20963;-74
2021/09/14 08:33:26;;;;;;;14.57;8.23;;;16.60;86.80;;;;;;5033296;28;20527;-75
2021/09/14 08:35:52;;;;;;;13.63;8.40;;;16.70;86.40;;;;;;5050774;28;20409;-75
2021/09/14 08:38:18;;;;;;;14.53;8.50;;;16.70;86.40;;;;;;5033210;28;20742;-76
2021/09/14 08:40:45;;;;;;;12.48;8.68;;;16.80;86.60;;;;;;5051372;28;20458;-75
2021/09/14 08:43:12;;;;;;;15.10;9.27;;;16.80;86.30;;;;;;5050804;28;20460;-75
2021/09/14 08:45:38;;;;;;;14.77;8.63;;;16.80;86.50;;;;;;5033192;28;20396;-75
2021/09/14 08:48:05;;;;;;;14.10;8.20;;;16.90;86.20;;;;;;5050740;28;20381;-75
2021/09/14 08:50:31;;;;;;;21.98;10.85;;;17.00;85.40;;;;;;5033089;28;20390;-75
2021/09/14 08:52:56;;;;;;;13.98;8.40;;;17.00;85.40;;;;;;5033047;28;20401;-74
2021/09/14 08:55:22;;;;;;;12.35;7.85;;;17.10;84.60;;;;;;5032759;28;20425;-75
2021/09/14 08:57:52;;;;;;;12.73;7.60;;;17.20;84.70;;;;;;5033072;28;20407;-75
2021/09/14 09:00:37;;;;;;;14.05;7.63;;;17.20;84.80;;;;;;5050985;28;20385;-74
2021/09/14 09:03:03;;;;;;;12.18;6.65;;;17.30;85.30;;;;;;5033027;28;20389;-75
2021/09/14 09:05:30;;;;;;;11.77;7.20;;;17.40;85.10;;;;;;5032951;28;20482;-74
2021/09/14 09:07:57;;;;;;;10.50;6.50;;;17.50;84.10;;;;;;5033048;28;20952;-74
2021/09/14 09:10:22;;;;;;;9.65;6.50;;;17.80;83.50;;;;;;5033049;28;20393;-75
2021/09/14 09:12:49;;;;;;;9.20;6.18;;;17.80;83.20;;;;;;5036524;28;20382;-75
2021/09/14 09:15:27;;;;;;;11.82;6.35;;;18.00;82.30;;;;;;5036475;28;20647;-74
2021/09/14 09:18:12;;;;;;;10.15;5.20;;;18.20;81.60;;;;;;5036641;28;20910;-75
2021/09/14 09:20:42;;;;;;;7.78;5.50;;;18.40;80.70;;;;;;5036761;28;20955;-75
2021/09/14 09:23:18;;;;;;;9.40;5.80;;;18.50;80.50;;;;;;5036653;28;20385;-75
2021/09/14 09:25:44;;;;;;;10.80;5.47;;;18.80;79.40;;;;;;5036632;28;20400;-75
2021/09/14 09:28:16;;;;;;;10.20;5.65;;;18.70;79.90;;;;;;5036618;28;20520;-75
2021/09/14 09:30:51;;;;;;;13.02;6.18;;;18.70;80.10;;;;;;5036509;28;20451;-75
2021/09/14 09:33:23;;;;;;;9.00;4.95;;;18.80;79.40;;;;;;5054172;28;20377;-75
2021/09/14 09:35:48;;;;;;;7.97;5.15;;;19.10;77.60;;;;;;5036358;28;20896;-75
2021/09/14 09:38:14;;;;;;;8.53;5.00;;;19.30;77.70;;;;;;5036106;28;20473;-75
2021/09/14 09:40:42;;;;;;;7.75;5.20;;;19.10;78.50;;;;;;5036383;28;20676;-74
2021/09/14 09:43:10;;;;;;;9.18;4.82;;;19.10;79.00;;;;;;5036253;28;20467;-75
2021/09/14 09:45:47;;;;;;;8.57;4.80;;;19.30;77.90;;;;;;5036161;28;20401;-76
2021/09/14 09:48:15;;;;;;;6.28;4.80;;;19.40;79.10;;;;;;5036221;28;20413;-75
2021/09/14 09:50:41;;;;;;;8.70;4.90;;;19.40;78.40;;;;;;5054120;28;20470;-74
2021/09/14 09:53:09;;;;;;;6.90;4.53;;;19.60;78.20;;;;;;5036064;28;20421;-74
2021/09/14 09:55:35;;;;;;;7.15;4.82;;;19.70;78.80;;;;;;5035565;28;20455;-74
2021/09/14 09:58:05;;;;;;;8.38;4.45;;;19.70;77.70;;;;;;5035900;28;20413;-74
2021/09/14 10:00:39;;;;;;;9.77;5.20;;;19.90;77.90;;;;;;5035971;28;20394;-74
2021/09/14 10:03:18;;;;;;;9.57;4.83;;;20.10;76.60;;;;;;5036201;28;20786;-75
2021/09/14 10:05:49;;;;;;;6.57;4.10;;;20.30;76.30;;;;;;5035916;28;20665;-75
2021/09/14 10:08:22;;;;;;;8.65;4.60;;;20.30;77.30;;;;;;5035862;28;20472;-75
2021/09/14 10:10:54;;;;;;;6.72;4.43;;;20.40;76.50;;;;;;5035731;28;20866;-75
2021/09/14 10:13:39;;;;;;;8.50;4.25;;;20.50;75.10;;;;;;5053358;28;20785;-74
2021/09/14 10:16:05;;;;;;;11.27;5.82;;;20.50;76.40;;;;;;5035669;28;20417;-74
2021/09/14 10:18:33;;;;;;;5.90;3.85;;;20.40;76.40;;;;;;5053531;28;20393;-75
2021/09/14 10:21:00;;;;;;;6.37;4.10;;;20.60;77.80;;;;;;5053528;28;20472;-74
2021/09/14 10:23:54;;;;;;;5.57;4.20;;;20.70;75.60;;;;;;5034243;28;20385;-76
2021/09/14 10:26:34;;;;;;;4.82;3.72;;;21.00;72.90;;;;;;5035550;28;20389;-74
2021/09/14 10:29:14;;;;;;;6.13;4.28;;;21.00;74.10;;;;;;5035402;28;20390;-75
2021/09/14 10:31:41;;;;;;;6.88;3.63;;;21.10;73.00;;;;;;5053339;28;20431;-74
2021/09/14 10:34:12;;;;;;;6.47;3.75;;;21.10;74.50;;;;;;5035159;28;20413;-74
2021/09/14 10:36:41;;;;;;;6.15;3.90;;;21.10;74.40;;;;;;5035323;28;20747;-74
2021/09/14 10:39:23;;;;;;;8.73;4.88;;;21.10;73.50;;;;;;5052870;28;20399;-76
2021/09/14 10:41:52;;;;;;;6.63;3.50;;;21.30;73.20;;;;;;5035177;28;20391;-74
2021/09/14 10:44:31;;;;;;;6.25;3.40;;;21.30;73.70;;;;;;5052985;28;20385;-75
2021/09/14 10:47:18;;;;;;;6.43;3.60;;;21.50;74.20;;;;;;5053035;28;20415;-74
2021/09/14 10:49:57;;;;;;;7.72;3.85;;;21.60;73.80;;;;;;5052773;28;20381;-75
2021/09/14 10:52:33;;;;;;;6.97;4.13;;;21.70;72.30;;;;;;5035297;28;20784;-76
2021/09/14 10:55:04;;;;;;;5.85;3.40;;;21.80;71.60;;;;;;5034685;28;20459;-75
2021/09/14 10:57:44;;;;;;;6.93;3.90;;;21.80;73.70;;;;;;5018212;28;20417;-76
2021/09/14 11:00:17;;;;;;;7.47;4.13;;;21.80;73.20;;;;;;5052809;28;20441;-75
2021/09/14 11:02:58;;;;;;;4.95;3.40;;;21.80;71.60;;;;;;5034859;28;20389;-75
2021/09/14 11:05:35;;;;;;;5.63;3.72;;;21.80;72.00;;;;;;5052407;28;20381;-75
2021/09/14 11:08:06;;;;;;;7.22;4.22;;;21.80;72.00;;;;;;5034697;28;20397;-74
2021/09/14 11:10:42;;;;;;;5.72;3.53;;;21.80;71.10;;;;;;5034582;28;20736;-75
2021/09/14 11:13:17;;;;;;;7.30;3.63;;;21.80;73.80;;;;;;5034602;28;20400;-75
2021/09/14 11:15:43;;;;;;;5.35;3.30;;;21.90;75.10;;;;;;5034572;28;20444;-75
2021/09/14 11:18:08;;;;;;;4.43;2.77;;;22.10;74.70;;;;;;5034542;28;20955;-75
2021/09/14 11:20:36;;;;;;;6.18;3.05;;;22.30;72.40;;;;;;5034562;28;20408;-75
2021/09/14 11:23:04;;;;;;;4.18;2.75;;;22.30;72.90;;;;;;5034468;28;20381;-75
2021/09/14 11:25:30;;;;;;;5.63;3.42;;;22.40;74.70;;;;;;5034411;28;20440;-73
2021/09/14 11:28:09;;;;;;;4.72;3.80;;;22.30;73.20;;;;;;5052210;28;20393;-74
2021/09/14 11:30:35;;;;;;;5.60;3.67;;;22.60;71.10;;;;;;5034297;28;20389;-76
2021/09/14 11:33:02;;;;;;;5.18;3.28;;;22.70;71.00;;;;;;5034175;28;20401;-75
2021/09/14 11:35:39;;;;;;;3.83;3.00;;;22.80;72.10;;;;;;5033821;28;20409;-75
2021/09/14 11:38:07;;;;;;;6.55;3.50;;;22.80;70.90;;;;;;5034172;28;20853;-76
2021/09/14 11:40:35;;;;;;;6.88;3.10;;;22.50;73.50;;;;;;5034112;28;20389;-76
2021/09/14 11:43:03;;;;;;;7.72;2.97;;;22.70;71.70;;;;;;5034061;28;20393;-74
2021/09/14 11:45:31;;;;;;;5.45;3.60;;;22.80;74.90;;;;;;5033967;28;20877;-75
2021/09/14 11:47:58;;;;;;;4.57;3.20;;;22.90;72.70;;;;;;5033973;28;20390;-75
2021/09/14 11:50:26;;;;;;;5.72;3.53;;;22.80;69.60;;;;;;5033990;28;20382;-75
2021/09/14 11:53:06;;;;;;;5.47;3.50;;;22.80;69.50;;;;;;5033881;28;20389;-75
2021/09/14 11:55:32;;;;;;;5.57;3.65;;;22.80;69.10;;;;;;5051637;28;20434;-75
2021/09/14 11:57:58;;;;;;;6.00;3.25;;;22.70;69.70;;;;;;5033837;28;20428;-75
2021/09/14 12:01:00;;;;;;;5.20;3.27;;;22.70;73.50;;;;;;5051634;28;20390;-74
2021/09/14 12:03:36;;;;;;;5.05;3.55;;;22.80;72.90;;;;;;4998984;28;20389;-75
2021/09/14 12:06:02;;;;;;;5.80;3.58;;;22.80;69.60;;;;;;5033802;28;20442;-75
2021/09/14 12:08:30;;;;;;;5.28;3.40;;;22.90;71.70;;;;;;5033662;28;20404;-75
2021/09/14 12:10:56;;;;;;;4.45;3.40;;;23.00;71.60;;;;;;5033611;28;20451;-75
2021/09/14 12:13:22;;;;;;;3.90;3.40;;;23.10;70.60;;;;;;5033529;28;20443;-75
2021/09/14 12:15:49;;;;;;;5.85;3.30;;;23.30;69.10;;;;;;5033458;28;20749;-75
2021/09/14 12:18:16;;;;;;;6.13;3.00;;;23.30;68.50;;;;;;5033461;28;20389;-75
2021/09/14 12:20:45;;;;;;;5.57;3.35;;;23.60;71.70;;;;;;5051636;28;20381;-76
2021/09/14 12:23:13;;;;;;;4.15;2.80;;;23.70;70.40;;;;;;5033366;28;20389;-75
2021/09/14 12:25:38;;;;;;;4.95;3.30;;;23.60;69.10;;;;;;5033725;28;20398;-75
2021/09/14 12:28:05;;;;;;;4.33;3.40;;;23.60;68.00;;;;;;5051335;28;20388;-74
2021/09/14 12:30:31;;;;;;;4.72;2.97;;;23.50;68.40;;;;;;5051287;28;20388;-74
2021/09/14 12:32:56;;;;;;;5.67;3.37;;;23.70;67.20;;;;;;5033074;28;20879;-74
2021/09/14 12:35:22;;;;;;;6.32;3.22;;;23.80;65.40;;;;;;5033287;28;20412;-76
2021/09/14 12:37:48;;;;;;;4.33;2.93;;;23.80;66.30;;;;;;5033334;28;20397;-74
2021/09/14 12:40:14;;;;;;;4.18;2.75;;;23.80;64.40;;;;;;5033324;28;20417;-74
2021/09/14 12:42:39;;;;;;;5.05;2.85;;;23.90;68.40;;;;;;5050957;28;20708;-74
2021/09/14 12:45:05;;;;;;;5.15;2.67;;;23.80;66.00;;;;;;5033284;28;20415;-74
2021/09/14 12:47:31;;;;;;;3.20;2.65;;;23.90;69.00;;;;;;5036643;28;20409;-74
2021/09/14 12:49:57;;;;;;;4.15;2.75;;;23.90;65.80;;;;;;5055033;28;20454;-74
2021/09/14 12:52:23;;;;;;;5.33;2.50;;;24.10;66.70;;;;;;5037378;28;20866;-74
2021/09/14 12:54:48;;;;;;;5.20;2.60;;;24.30;65.30;;;;;;5054956;28;20452;-76
2021/09/14 12:57:14;;;;;;;3.40;2.20;;;24.30;64.90;;;;;;5055177;28;20427;-75
2021/09/14 12:59:40;;;;;;;7.80;2.60;;;24.30;64.80;;;;;;5055073;28;20417;-74
2021/09/14 13:02:07;;;;;;;3.65;2.13;;;24.30;63.80;;;;;;5055082;28;20727;-73
2021/09/14 13:04:32;;;;;;;3.00;2.10;;;24.20;62.90;;;;;;5037133;28;20795;-74
2021/09/14 13:06:58;;;;;;;3.50;2.07;;;24.20;69.20;;;;;;5037021;28;20428;-74
2021/09/14 13:09:24;;;;;;;3.10;2.47;;;24.20;64.40;;;;;;5036892;28;20413;-75
2021/09/14 13:11:49;;;;;;;3.53;2.30;;;24.20;67.90;;;;;;5055147;28;20381;-75
2021/09/14 13:17:00;;;;;;;3.50;2.10;;;24.30;64.80;;;;;;5054839;28;20901;-75
2021/09/14 13:19:25;;;;;;;2.88;2.05;;;24.10;65.20;;;;;;5036789;28;20423;-76
2021/09/14 13:21:52;;;;;;;2.53;2.10;;;24.20;63.10;;;;;;5054720;28;20750;-73
2021/09/14 13:24:17;;;;;;;3.50;2.17;;;24.10;66.00;;;;;;5036620;28;20429;-75
2021/09/14 13:26:43;;;;;;;2.90;2.40;;;24.00;67.60;;;;;;5054196;28;20420;-74
2021/09/14 13:29:09;;;;;;;7.70;4.50;;;23.90;68.80;;;;;;5036434;28;20425;-74
2021/09/14 13:31:34;;;;;;;5.72;2.40;;;24.00;64.90;;;;;;5036535;28;20447;-75
2021/09/14 13:34:00;;;;;;;4.13;2.73;;;23.80;69.10;;;;;;5036422;28;20480;-76
2021/09/14 13:36:26;;;;;;;3.42;2.40;;;23.70;67.10;;;;;;5036298;28;20450;-76
2021/09/14 13:38:51;;;;;;;3.13;2.40;;;23.70;63.80;;;;;;5036450;28;20749;-76
2021/09/14 13:41:18;;;;;;;3.10;2.15;;;23.60;67.30;;;;;;5036364;28;20397;-75
2021/09/14 13:46:14;;;;;;;2.75;2.03;;;23.70;66.60;;;;;;5054202;28;20500;-76